ART2N8 ESSA-ESSV
Flight info
| Callsign | ART2N8 |
|---|---|
| Flight time | 0h 31m |
| Altitude | 24000 |
| Route | BABAP T316 GOTAL |
| Aircraft | A20N/M-SDE2E3FGHIRWXY/LB1 |
Departure
| Time | 2026-05-06 17:18 |
|---|---|
| Airport | Stockholm-Arlanda Airport (ESSA) |
Arrival
| Time | 2026-05-06 17:49 |
|---|---|
| Airport | Visby Airport (ESSV) |
| Time | Latitude | Longitude | Altitude | Speed | Heading |
|---|---|---|---|---|---|
| 2026-05-06 16:48 | 59.64501 | 17.92406 | 113 ft | 0 kts | 358° |
| 2026-05-06 17:10 | 59.64505 | 17.92411 | 113 ft | 0 kts | 61° |
| 2026-05-06 17:11 | 59.64500 | 17.92420 | 113 ft | 2 kts | 168° |
| 2026-05-06 17:11 | 59.64495 | 17.92421 | 113 ft | 0 kts | 176° |
| 2026-05-06 17:11 | 59.64485 | 17.92421 | 113 ft | 2 kts | 180° |
| 2026-05-06 17:11 | 59.64455 | 17.92414 | 113 ft | 5 kts | 194° |
| 2026-05-06 17:12 | 59.64412 | 17.92368 | 114 ft | 8 kts | 211° |
| 2026-05-06 17:12 | 59.64362 | 17.92287 | 114 ft | 10 kts | 243° |
| 2026-05-06 17:12 | 59.64382 | 17.92132 | 114 ft | 14 kts | 297° |
| 2026-05-06 17:12 | 59.64438 | 17.91959 | 113 ft | 15 kts | 333° |
| 2026-05-06 17:13 | 59.64552 | 17.91981 | 113 ft | 17 kts | 11° |
| 2026-05-06 17:13 | 59.64670 | 17.92024 | 112 ft | 17 kts | 12° |
| 2026-05-06 17:13 | 59.64796 | 17.92070 | 111 ft | 18 kts | 11° |
| 2026-05-06 17:13 | 59.64926 | 17.92116 | 110 ft | 19 kts | 9° |
| 2026-05-06 17:14 | 59.65063 | 17.92164 | 109 ft | 20 kts | 11° |
| 2026-05-06 17:14 | 59.65202 | 17.92216 | 108 ft | 20 kts | 11° |
| 2026-05-06 17:14 | 59.65346 | 17.92268 | 108 ft | 21 kts | 11° |
| 2026-05-06 17:14 | 59.65488 | 17.92319 | 108 ft | 21 kts | 10° |
| 2026-05-06 17:15 | 59.65631 | 17.92371 | 108 ft | 20 kts | 11° |
| 2026-05-06 17:15 | 59.65743 | 17.92412 | 109 ft | 9 kts | 2° |
| 2026-05-06 17:15 | 59.65791 | 17.92358 | 109 ft | 8 kts | 301° |
| 2026-05-06 17:15 | 59.65783 | 17.92233 | 109 ft | 10 kts | 225° |
| 2026-05-06 17:16 | 59.65724 | 17.92127 | 108 ft | 12 kts | 238° |
| 2026-05-06 17:16 | 59.65687 | 17.92026 | 107 ft | 9 kts | 193° |
| 2026-05-06 17:16 | 59.65671 | 17.92020 | 107 ft | 0 kts | 189° |
| 2026-05-06 17:18 | 59.65592 | 17.91993 | 107 ft | 46 kts | 190° |
| 2026-05-06 17:18 | 59.64989 | 17.91775 | 106 ft | 126 kts | 191° |
| 2026-05-06 17:18 | 59.63996 | 17.91401 | 522 ft | 153 kts | 188° |
| 2026-05-06 17:18 | 59.62992 | 17.91002 | 1397 ft | 151 kts | 187° |
| 2026-05-06 17:19 | 59.61923 | 17.90638 | 2079 ft | 164 kts | 185° |
| 2026-05-06 17:19 | 59.60753 | 17.90461 | 2673 ft | 181 kts | 179° |
| 2026-05-06 17:19 | 59.59417 | 17.90404 | 3238 ft | 203 kts | 182° |
| 2026-05-06 17:19 | 59.57991 | 17.90258 | 4111 ft | 211 kts | 181° |
| 2026-05-06 17:20 | 59.56570 | 17.90750 | 4975 ft | 218 kts | 152° |
| 2026-05-06 17:20 | 59.55427 | 17.92672 | 5846 ft | 225 kts | 133° |
| 2026-05-06 17:20 | 59.54413 | 17.95063 | 6702 ft | 232 kts | 119° |
| 2026-05-06 17:20 | 59.53976 | 17.98066 | 7574 ft | 235 kts | 88° |
| 2026-05-06 17:21 | 59.54343 | 18.01158 | 8367 ft | 242 kts | 63° |
| 2026-05-06 17:21 | 59.55030 | 18.04286 | 8985 ft | 261 kts | 75° |
| 2026-05-06 17:21 | 59.54960 | 18.07938 | 9543 ft | 282 kts | 110° |
| 2026-05-06 17:21 | 59.53817 | 18.11112 | 10201 ft | 295 kts | 144° |
| 2026-05-06 17:22 | 59.51944 | 18.12701 | 10838 ft | 304 kts | 175° |
| 2026-05-06 17:22 | 59.49832 | 18.12694 | 11613 ft | 310 kts | 184° |
| 2026-05-06 17:22 | 59.47681 | 18.13296 | 12473 ft | 321 kts | 163° |
| 2026-05-06 17:22 | 59.45636 | 18.15002 | 13391 ft | 326 kts | 158° |
| 2026-05-06 17:23 | 59.43571 | 18.16913 | 14257 ft | 330 kts | 159° |
| 2026-05-06 17:23 | 59.41510 | 18.18756 | 15098 ft | 333 kts | 160° |
| 2026-05-06 17:23 | 59.39394 | 18.20558 | 15958 ft | 336 kts | 161° |
| 2026-05-06 17:23 | 59.37249 | 18.22316 | 16790 ft | 338 kts | 162° |
| 2026-05-06 17:24 | 59.35064 | 18.24067 | 17502 ft | 340 kts | 163° |
| 2026-05-06 17:24 | 59.32884 | 18.25789 | 17930 ft | 341 kts | 163° |
| 2026-05-06 17:24 | 59.30668 | 18.27523 | 18003 ft | 342 kts | 163° |
| 2026-05-06 17:24 | 59.28484 | 18.29226 | 18006 ft | 341 kts | 163° |
| 2026-05-06 17:25 | 59.26286 | 18.30930 | 18024 ft | 346 kts | 163° |
| 2026-05-06 17:25 | 59.24034 | 18.32671 | 18021 ft | 351 kts | 163° |
| 2026-05-06 17:25 | 59.21765 | 18.34428 | 18014 ft | 352 kts | 163° |
| 2026-05-06 17:25 | 59.19477 | 18.36199 | 18009 ft | 353 kts | 163° |
| 2026-05-06 17:26 | 59.17218 | 18.37945 | 18017 ft | 353 kts | 163° |
| 2026-05-06 17:26 | 59.14935 | 18.39705 | 18012 ft | 353 kts | 163° |
| 2026-05-06 17:26 | 59.12676 | 18.41445 | 18014 ft | 353 kts | 163° |
| 2026-05-06 17:26 | 59.10384 | 18.43208 | 18017 ft | 352 kts | 163° |
| 2026-05-06 17:27 | 59.08126 | 18.44941 | 18012 ft | 352 kts | 163° |
| 2026-05-06 17:27 | 59.05845 | 18.46689 | 18010 ft | 352 kts | 163° |
| 2026-05-06 17:27 | 59.03567 | 18.48434 | 18009 ft | 352 kts | 163° |
| 2026-05-06 17:27 | 59.01291 | 18.50172 | 18008 ft | 352 kts | 163° |
| 2026-05-06 17:28 | 58.99017 | 18.51907 | 18007 ft | 352 kts | 163° |
| 2026-05-06 17:28 | 58.96755 | 18.53632 | 18004 ft | 352 kts | 163° |
| 2026-05-06 17:28 | 58.94480 | 18.55229 | 18000 ft | 349 kts | 169° |
| 2026-05-06 17:28 | 58.92104 | 18.56112 | 18000 ft | 344 kts | 179° |
| 2026-05-06 17:29 | 58.89748 | 18.56144 | 18004 ft | 340 kts | 188° |
| 2026-05-06 17:29 | 58.87406 | 18.55743 | 18002 ft | 339 kts | 190° |
| 2026-05-06 17:29 | 58.85080 | 18.55276 | 18006 ft | 339 kts | 190° |
| 2026-05-06 17:29 | 58.82714 | 18.54805 | 18004 ft | 342 kts | 189° |
| 2026-05-06 17:30 | 58.80355 | 18.54351 | 18004 ft | 344 kts | 189° |
| 2026-05-06 17:30 | 58.78001 | 18.53965 | 17836 ft | 340 kts | 187° |
| 2026-05-06 17:30 | 58.75628 | 18.53754 | 17299 ft | 340 kts | 186° |
| 2026-05-06 17:30 | 58.73302 | 18.53564 | 16761 ft | 340 kts | 186° |
| 2026-05-06 17:31 | 58.70952 | 18.53367 | 16271 ft | 339 kts | 186° |
| 2026-05-06 17:31 | 58.68606 | 18.53172 | 15856 ft | 336 kts | 185° |
| 2026-05-06 17:31 | 58.66276 | 18.52982 | 15398 ft | 335 kts | 185° |
| 2026-05-06 17:31 | 58.63986 | 18.52796 | 14924 ft | 335 kts | 185° |
| 2026-05-06 17:32 | 58.61655 | 18.52607 | 14419 ft | 335 kts | 185° |
| 2026-05-06 17:32 | 58.59331 | 18.52417 | 13917 ft | 335 kts | 184° |
| 2026-05-06 17:32 | 58.57033 | 18.52231 | 13430 ft | 334 kts | 184° |
| 2026-05-06 17:32 | 58.54707 | 18.52046 | 12940 ft | 334 kts | 184° |
| 2026-05-06 17:33 | 58.52413 | 18.51861 | 12460 ft | 333 kts | 184° |
| 2026-05-06 17:33 | 58.50095 | 18.51675 | 11978 ft | 331 kts | 183° |
| 2026-05-06 17:33 | 58.47825 | 18.51493 | 11504 ft | 330 kts | 183° |
| 2026-05-06 17:33 | 58.45526 | 18.51309 | 11021 ft | 329 kts | 183° |
| 2026-05-06 17:34 | 58.43268 | 18.51129 | 10547 ft | 328 kts | 182° |
| 2026-05-06 17:34 | 58.41002 | 18.50950 | 10189 ft | 322 kts | 182° |
| 2026-05-06 17:34 | 58.38838 | 18.50781 | 10074 ft | 308 kts | 182° |
| 2026-05-06 17:34 | 58.36724 | 18.50616 | 10004 ft | 293 kts | 182° |
| 2026-05-06 17:35 | 58.34763 | 18.50464 | 9994 ft | 277 kts | 182° |
| 2026-05-06 17:35 | 58.32898 | 18.50316 | 9990 ft | 262 kts | 182° |
| 2026-05-06 17:35 | 58.31080 | 18.50171 | 9994 ft | 261 kts | 182° |
| 2026-05-06 17:36 | 58.27486 | 18.49882 | 9731 ft | 257 kts | 182° |
| 2026-05-06 17:36 | 58.25703 | 18.49739 | 9245 ft | 263 kts | 182° |
| 2026-05-06 17:36 | 58.23840 | 18.49591 | 8696 ft | 274 kts | 182° |
| 2026-05-06 17:36 | 58.21919 | 18.49440 | 8659 ft | 278 kts | 181° |
| 2026-05-06 17:37 | 58.19962 | 18.49286 | 8207 ft | 282 kts | 181° |
| 2026-05-06 17:37 | 58.18011 | 18.49132 | 7733 ft | 283 kts | 181° |
| 2026-05-06 17:37 | 58.16046 | 18.48978 | 7339 ft | 282 kts | 181° |
| 2026-05-06 17:37 | 58.14129 | 18.48828 | 6955 ft | 280 kts | 181° |
| 2026-05-06 17:38 | 58.12191 | 18.48677 | 6561 ft | 278 kts | 181° |
| 2026-05-06 17:38 | 58.10268 | 18.48527 | 6168 ft | 277 kts | 181° |
| 2026-05-06 17:38 | 58.08351 | 18.48376 | 5777 ft | 275 kts | 180° |
| 2026-05-06 17:38 | 58.06434 | 18.48226 | 5383 ft | 274 kts | 180° |
| 2026-05-06 17:39 | 58.04575 | 18.48081 | 5117 ft | 268 kts | 180° |
| 2026-05-06 17:39 | 58.02746 | 18.47937 | 5006 ft | 255 kts | 180° |
| 2026-05-06 17:39 | 58.01032 | 18.47800 | 4994 ft | 240 kts | 180° |
| 2026-05-06 17:39 | 57.99367 | 18.47670 | 4804 ft | 238 kts | 179° |
| 2026-05-06 17:40 | 57.97735 | 18.47546 | 4546 ft | 237 kts | 179° |
| 2026-05-06 17:40 | 57.96097 | 18.47422 | 4290 ft | 235 kts | 179° |
| 2026-05-06 17:40 | 57.94457 | 18.47295 | 4023 ft | 232 kts | 179° |
| 2026-05-06 17:40 | 57.92864 | 18.47172 | 3758 ft | 230 kts | 179° |
| 2026-05-06 17:41 | 57.91287 | 18.47049 | 3493 ft | 228 kts | 179° |
| 2026-05-06 17:41 | 57.89720 | 18.46928 | 3234 ft | 225 kts | 179° |
| 2026-05-06 17:41 | 57.88162 | 18.46807 | 2972 ft | 224 kts | 179° |
| 2026-05-06 17:41 | 57.86601 | 18.46688 | 2710 ft | 224 kts | 179° |
| 2026-05-06 17:42 | 57.85056 | 18.46571 | 2499 ft | 222 kts | 178° |
| 2026-05-06 17:42 | 57.83528 | 18.46417 | 2362 ft | 221 kts | 183° |
| 2026-05-06 17:42 | 57.82031 | 18.45847 | 2225 ft | 215 kts | 192° |
| 2026-05-06 17:42 | 57.80672 | 18.44975 | 2183 ft | 202 kts | 197° |
| 2026-05-06 17:43 | 57.79422 | 18.44042 | 2248 ft | 185 kts | 198° |
| 2026-05-06 17:43 | 57.78245 | 18.43163 | 2223 ft | 179 kts | 197° |
| 2026-05-06 17:43 | 57.77093 | 18.42329 | 2204 ft | 178 kts | 197° |
| 2026-05-06 17:43 | 57.75928 | 18.41501 | 2052 ft | 178 kts | 197° |
| 2026-05-06 17:44 | 57.74782 | 18.40687 | 1806 ft | 177 kts | 197° |
| 2026-05-06 17:44 | 57.73636 | 18.39871 | 1561 ft | 176 kts | 197° |
| 2026-05-06 17:44 | 57.72473 | 18.39407 | 1474 ft | 168 kts | 169° |
| 2026-05-06 17:44 | 57.71378 | 18.39990 | 1492 ft | 165 kts | 154° |
| 2026-05-06 17:45 | 57.70309 | 18.40812 | 1493 ft | 165 kts | 152° |
| 2026-05-06 17:45 | 57.69254 | 18.41660 | 1493 ft | 165 kts | 153° |
| 2026-05-06 17:45 | 57.68119 | 18.41970 | 1481 ft | 173 kts | 184° |
| 2026-05-06 17:45 | 57.66957 | 18.41348 | 1495 ft | 175 kts | 195° |
| 2026-05-06 17:46 | 57.65812 | 18.40545 | 1496 ft | 175 kts | 197° |
| 2026-05-06 17:46 | 57.64679 | 18.39718 | 1496 ft | 175 kts | 197° |
| 2026-05-06 17:46 | 57.63544 | 18.38884 | 1497 ft | 175 kts | 197° |
| 2026-05-06 17:46 | 57.62409 | 18.38051 | 1496 ft | 175 kts | 197° |
| 2026-05-06 17:47 | 57.61310 | 18.37233 | 1461 ft | 160 kts | 200° |
| 2026-05-06 17:47 | 57.60518 | 18.35964 | 1364 ft | 148 kts | 245° |
| 2026-05-06 17:47 | 57.60507 | 18.34168 | 1248 ft | 140 kts | 299° |
| 2026-05-06 17:47 | 57.61071 | 18.32722 | 1157 ft | 135 kts | 324° |
| 2026-05-06 17:48 | 57.61864 | 18.31972 | 957 ft | 126 kts | 358° |
| 2026-05-06 17:48 | 57.62721 | 18.32118 | 780 ft | 124 kts | 20° |
| 2026-05-06 17:48 | 57.63541 | 18.32660 | 617 ft | 125 kts | 25° |
| 2026-05-06 17:48 | 57.64345 | 18.33238 | 417 ft | 125 kts | 24° |
| 2026-05-06 17:49 | 57.65154 | 18.33820 | 231 ft | 123 kts | 24° |
| 2026-05-06 17:49 | 57.65919 | 18.34377 | 143 ft | 103 kts | 20° |
| 2026-05-06 17:49 | 57.66433 | 18.34735 | 139 ft | 53 kts | 20° |
| 2026-05-06 17:49 | 57.66706 | 18.34931 | 141 ft | 39 kts | 20° |
| 2026-05-06 17:50 | 57.66939 | 18.35099 | 141 ft | 31 kts | 19° |
| 2026-05-06 17:50 | 57.67085 | 18.35199 | 141 ft | 15 kts | 18° |
| 2026-05-06 17:50 | 57.67186 | 18.35166 | 141 ft | 15 kts | 314° |
| 2026-05-06 17:50 | 57.67193 | 18.34988 | 144 ft | 14 kts | 237° |
| 2026-05-06 17:51 | 57.67105 | 18.34890 | 143 ft | 16 kts | 200° |
| 2026-05-06 17:51 | 57.66994 | 18.34812 | 141 ft | 17 kts | 200° |
| 2026-05-06 17:51 | 57.66878 | 18.34727 | 142 ft | 18 kts | 200° |
| 2026-05-06 17:51 | 57.66756 | 18.34641 | 141 ft | 19 kts | 201° |
| 2026-05-06 17:52 | 57.66629 | 18.34549 | 141 ft | 19 kts | 201° |
| 2026-05-06 17:52 | 57.66500 | 18.34457 | 141 ft | 20 kts | 200° |
| 2026-05-06 17:52 | 57.66368 | 18.34362 | 141 ft | 20 kts | 200° |
| 2026-05-06 17:52 | 57.66235 | 18.34268 | 141 ft | 20 kts | 201° |
| 2026-05-06 17:53 | 57.66111 | 18.34177 | 142 ft | 14 kts | 200° |
| 2026-05-06 17:53 | 57.66037 | 18.34124 | 144 ft | 8 kts | 205° |
| 2026-05-06 17:53 | 57.66027 | 18.34044 | 144 ft | 7 kts | 327° |
| 2026-05-06 17:53 | 57.66077 | 18.34006 | 144 ft | 6 kts | 333° |
| 2026-05-06 17:54 | 57.66099 | 18.33983 | 144 ft | 2 kts | 331° |
| 2026-05-06 17:54 | 57.66102 | 18.33980 | 144 ft | 0 kts | 331° |